sensor_id;sensor_type;location;lat;lon;timestamp;P1;durP1;ratioP1;P2;durP2;ratioP2
76640;SDS011;65538;50.798;6.064;2024-01-06T00:02:00;16.50;;;8.10;;
76640;SDS011;65538;50.798;6.064;2024-01-06T00:04:26;20.80;;;11.07;;
76640;SDS011;65538;50.798;6.064;2024-01-06T00:06:52;18.67;;;8.63;;
76640;SDS011;65538;50.798;6.064;2024-01-06T00:09:17;21.33;;;10.60;;
76640;SDS011;65538;50.798;6.064;2024-01-06T00:11:42;25.67;;;10.47;;
76640;SDS011;65538;50.798;6.064;2024-01-06T00:14:07;20.17;;;9.93;;
76640;SDS011;65538;50.798;6.064;2024-01-06T00:16:32;23.43;;;10.67;;
76640;SDS011;65538;50.798;6.064;2024-01-06T00:18:58;23.63;;;11.63;;
76640;SDS011;65538;50.798;6.064;2024-01-06T00:21:24;26.73;;;12.60;;
76640;SDS011;65538;50.798;6.064;2024-01-06T00:23:49;27.17;;;11.17;;
76640;SDS011;65538;50.798;6.064;2024-01-06T00:26:15;31.07;;;14.03;;
76640;SDS011;65538;50.798;6.064;2024-01-06T00:28:40;34.27;;;16.03;;
76640;SDS011;65538;50.798;6.064;2024-01-06T00:31:05;31.23;;;13.43;;
76640;SDS011;65538;50.798;6.064;2024-01-06T00:33:31;31.42;;;14.02;;
76640;SDS011;65538;50.798;6.064;2024-01-06T00:35:56;31.87;;;13.77;;
76640;SDS011;65538;50.798;6.064;2024-01-06T00:38:21;34.77;;;13.97;;
76640;SDS011;65538;50.798;6.064;2024-01-06T00:40:46;32.20;;;14.20;;
76640;SDS011;65538;50.798;6.064;2024-01-06T00:43:11;30.83;;;13.63;;
76640;SDS011;65538;50.798;6.064;2024-01-06T00:45:37;36.77;;;16.07;;
76640;SDS011;65538;50.798;6.064;2024-01-06T00:48:02;38.17;;;15.18;;
76640;SDS011;65538;50.798;6.064;2024-01-06T00:50:28;36.87;;;15.47;;
76640;SDS011;65538;50.798;6.064;2024-01-06T00:52:53;39.77;;;16.37;;
76640;SDS011;65538;50.798;6.064;2024-01-06T00:55:21;38.80;;;15.80;;
76640;SDS011;65538;50.798;6.064;2024-01-06T00:57:47;33.80;;;14.98;;
76640;SDS011;65538;50.798;6.064;2024-01-06T01:00:12;34.93;;;15.23;;
76640;SDS011;65538;50.798;6.064;2024-01-06T01:02:38;35.88;;;15.23;;
76640;SDS011;65538;50.798;6.064;2024-01-06T01:05:03;37.08;;;14.70;;
76640;SDS011;65538;50.798;6.064;2024-01-06T01:07:28;37.20;;;15.10;;
76640;SDS011;65538;50.798;6.064;2024-01-06T01:09:53;36.77;;;14.83;;
76640;SDS011;65538;50.798;6.064;2024-01-06T01:12:18;33.77;;;14.80;;
76640;SDS011;65538;50.798;6.064;2024-01-06T01:14:44;35.00;;;15.57;;
76640;SDS011;65538;50.798;6.064;2024-01-06T01:17:09;37.67;;;14.83;;
76640;SDS011;65538;50.798;6.064;2024-01-06T01:19:34;35.33;;;14.77;;
76640;SDS011;65538;50.798;6.064;2024-01-06T01:21:59;37.63;;;15.87;;
76640;SDS011;65538;50.798;6.064;2024-01-06T01:24:24;33.00;;;14.20;;
76640;SDS011;65538;50.798;6.064;2024-01-06T01:26:50;39.53;;;15.63;;
76640;SDS011;65538;50.798;6.064;2024-01-06T01:29:16;37.20;;;14.13;;
76640;SDS011;65538;50.798;6.064;2024-01-06T01:31:41;45.05;;;19.17;;
76640;SDS011;65538;50.798;6.064;2024-01-06T01:34:06;45.87;;;18.77;;
76640;SDS011;65538;50.798;6.064;2024-01-06T01:36:31;49.10;;;19.90;;
76640;SDS011;65538;50.798;6.064;2024-01-06T01:38:57;50.03;;;22.73;;
76640;SDS011;65538;50.798;6.064;2024-01-06T01:41:22;51.33;;;22.73;;
76640;SDS011;65538;50.798;6.064;2024-01-06T01:43:47;43.47;;;18.30;;
76640;SDS011;65538;50.798;6.064;2024-01-06T01:46:12;40.23;;;16.73;;
76640;SDS011;65538;50.798;6.064;2024-01-06T01:48:37;43.28;;;16.52;;
76640;SDS011;65538;50.798;6.064;2024-01-06T01:51:03;42.47;;;17.27;;
76640;SDS011;65538;50.798;6.064;2024-01-06T01:53:28;41.70;;;18.93;;
76640;SDS011;65538;50.798;6.064;2024-01-06T01:55:54;46.80;;;18.63;;
76640;SDS011;65538;50.798;6.064;2024-01-06T01:58:20;38.03;;;16.73;;
76640;SDS011;65538;50.798;6.064;2024-01-06T02:00:45;39.80;;;17.83;;
76640;SDS011;65538;50.798;6.064;2024-01-06T02:03:10;36.67;;;15.07;;
76640;SDS011;65538;50.798;6.064;2024-01-06T02:05:37;29.08;;;14.02;;
76640;SDS011;65538;50.798;6.064;2024-01-06T02:08:02;35.87;;;14.77;;
76640;SDS011;65538;50.798;6.064;2024-01-06T02:10:27;31.17;;;12.80;;
76640;SDS011;65538;50.798;6.064;2024-01-06T02:12:54;32.53;;;13.27;;
76640;SDS011;65538;50.798;6.064;2024-01-06T02:15:19;25.93;;;11.90;;
76640;SDS011;65538;50.798;6.064;2024-01-06T02:17:44;29.50;;;11.20;;
76640;SDS011;65538;50.798;6.064;2024-01-06T02:20:09;23.50;;;10.77;;
76640;SDS011;65538;50.798;6.064;2024-01-06T02:22:36;30.75;;;12.48;;
76640;SDS011;65538;50.798;6.064;2024-01-06T02:25:01;33.60;;;11.32;;
76640;SDS011;65538;50.798;6.064;2024-01-06T02:27:27;29.08;;;10.95;;
76640;SDS011;65538;50.798;6.064;2024-01-06T02:29:52;23.23;;;11.07;;
76640;SDS011;65538;50.798;6.064;2024-01-06T02:32:17;25.37;;;10.13;;
76640;SDS011;65538;50.798;6.064;2024-01-06T02:34:42;25.47;;;10.67;;
76640;SDS011;65538;50.798;6.064;2024-01-06T02:37:07;26.60;;;11.93;;
76640;SDS011;65538;50.798;6.064;2024-01-06T02:39:33;22.23;;;9.13;;
76640;SDS011;65538;50.798;6.064;2024-01-06T02:41:58;26.57;;;9.93;;
76640;SDS011;65538;50.798;6.064;2024-01-06T02:44:23;23.73;;;9.60;;
76640;SDS011;65538;50.798;6.064;2024-01-06T02:46:48;24.30;;;9.77;;
76640;SDS011;65538;50.798;6.064;2024-01-06T02:49:13;23.07;;;10.00;;
76640;SDS011;65538;50.798;6.064;2024-01-06T02:51:39;18.10;;;8.40;;
76640;SDS011;65538;50.798;6.064;2024-01-06T02:54:04;27.40;;;9.60;;
76640;SDS011;65538;50.798;6.064;2024-01-06T02:56:29;23.23;;;9.27;;
76640;SDS011;65538;50.798;6.064;2024-01-06T02:58:54;23.93;;;9.30;;
76640;SDS011;65538;50.798;6.064;2024-01-06T03:01:19;29.43;;;10.40;;
76640;SDS011;65538;50.798;6.064;2024-01-06T03:03:45;31.33;;;11.87;;
76640;SDS011;65538;50.798;6.064;2024-01-06T03:06:10;26.53;;;10.93;;
76640;SDS011;65538;50.798;6.064;2024-01-06T03:08:35;27.67;;;10.40;;
76640;SDS011;65538;50.798;6.064;2024-01-06T03:11:01;27.73;;;10.57;;
76640;SDS011;65538;50.798;6.064;2024-01-06T03:13:28;15.23;;;6.07;;
76640;SDS011;65538;50.798;6.064;2024-01-06T03:15:54;22.70;;;9.07;;
76640;SDS011;65538;50.798;6.064;2024-01-06T03:18:19;25.60;;;9.55;;
76640;SDS011;65538;50.798;6.064;2024-01-06T03:20:44;25.17;;;10.13;;
76640;SDS011;65538;50.798;6.064;2024-01-06T03:23:09;21.90;;;8.83;;
76640;SDS011;65538;50.798;6.064;2024-01-06T03:25:35;26.57;;;10.47;;
76640;SDS011;65538;50.798;6.064;2024-01-06T03:28:00;22.77;;;9.47;;
76640;SDS011;65538;50.798;6.064;2024-01-06T03:30:25;20.47;;;9.33;;
76640;SDS011;65538;50.798;6.064;2024-01-06T03:32:50;20.63;;;9.63;;
76640;SDS011;65538;50.798;6.064;2024-01-06T03:35:15;21.43;;;7.50;;
76640;SDS011;65538;50.798;6.064;2024-01-06T03:37:40;21.50;;;9.07;;
76640;SDS011;65538;50.798;6.064;2024-01-06T03:40:06;19.77;;;8.30;;
76640;SDS011;65538;50.798;6.064;2024-01-06T03:42:31;21.88;;;8.60;;
76640;SDS011;65538;50.798;6.064;2024-01-06T03:44:57;19.65;;;7.90;;
76640;SDS011;65538;50.798;6.064;2024-01-06T03:47:22;19.57;;;9.13;;
76640;SDS011;65538;50.798;6.064;2024-01-06T03:49:47;17.97;;;8.77;;
76640;SDS011;65538;50.798;6.064;2024-01-06T03:52:13;17.23;;;6.90;;
76640;SDS011;65538;50.798;6.064;2024-01-06T03:54:38;17.02;;;8.25;;
76640;SDS011;65538;50.798;6.064;2024-01-06T03:57:04;18.50;;;8.33;;
76640;SDS011;65538;50.798;6.064;2024-01-06T03:59:29;18.03;;;7.43;;
76640;SDS011;65538;50.798;6.064;2024-01-06T04:01:54;17.50;;;7.53;;
76640;SDS011;65538;50.798;6.064;2024-01-06T04:04:19;18.43;;;8.40;;
76640;SDS011;65538;50.798;6.064;2024-01-06T04:06:44;17.37;;;8.07;;
76640;SDS011;65538;50.798;6.064;2024-01-06T04:09:10;18.87;;;7.67;;
76640;SDS011;65538;50.798;6.064;2024-01-06T04:11:35;19.67;;;8.37;;
76640;SDS011;65538;50.798;6.064;2024-01-06T04:14:00;20.60;;;7.63;;
76640;SDS011;65538;50.798;6.064;2024-01-06T04:16:26;17.80;;;7.07;;
76640;SDS011;65538;50.798;6.064;2024-01-06T04:18:52;20.45;;;7.85;;
76640;SDS011;65538;50.798;6.064;2024-01-06T04:21:17;20.43;;;7.53;;
76640;SDS011;65538;50.798;6.064;2024-01-06T04:23:42;19.83;;;8.43;;
76640;SDS011;65538;50.798;6.064;2024-01-06T04:26:07;22.40;;;8.80;;
76640;SDS011;65538;50.798;6.064;2024-01-06T04:28:32;22.33;;;8.77;;
76640;SDS011;65538;50.798;6.064;2024-01-06T04:30:57;24.70;;;9.40;;
76640;SDS011;65538;50.798;6.064;2024-01-06T04:33:22;26.00;;;9.77;;
76640;SDS011;65538;50.798;6.064;2024-01-06T04:35:48;29.47;;;9.80;;
76640;SDS011;65538;50.798;6.064;2024-01-06T04:38:13;32.72;;;10.85;;
76640;SDS011;65538;50.798;6.064;2024-01-06T04:40:38;30.93;;;11.77;;
76640;SDS011;65538;50.798;6.064;2024-01-06T04:43:03;34.23;;;11.70;;
76640;SDS011;65538;50.798;6.064;2024-01-06T04:45:29;31.33;;;11.37;;
76640;SDS011;65538;50.798;6.064;2024-01-06T04:47:54;35.35;;;13.70;;
76640;SDS011;65538;50.798;6.064;2024-01-06T04:50:19;35.30;;;11.90;;
76640;SDS011;65538;50.798;6.064;2024-01-06T04:52:44;34.47;;;12.20;;
76640;SDS011;65538;50.798;6.064;2024-01-06T04:55:10;38.90;;;11.93;;
76640;SDS011;65538;50.798;6.064;2024-01-06T04:57:36;29.77;;;10.47;;
76640;SDS011;65538;50.798;6.064;2024-01-06T05:00:01;32.53;;;10.70;;
76640;SDS011;65538;50.798;6.064;2024-01-06T05:02:26;34.43;;;12.13;;
76640;SDS011;65538;50.798;6.064;2024-01-06T05:04:51;38.27;;;12.80;;
76640;SDS011;65538;50.798;6.064;2024-01-06T05:07:16;35.80;;;11.67;;
76640;SDS011;65538;50.798;6.064;2024-01-06T05:09:42;35.67;;;12.07;;
76640;SDS011;65538;50.798;6.064;2024-01-06T05:12:07;32.17;;;11.97;;
76640;SDS011;65538;50.798;6.064;2024-01-06T05:14:32;31.63;;;10.55;;
76640;SDS011;65538;50.798;6.064;2024-01-06T05:16:57;25.30;;;8.73;;
76640;SDS011;65538;50.798;6.064;2024-01-06T05:19:22;26.57;;;10.13;;
76640;SDS011;65538;50.798;6.064;2024-01-06T05:21:48;28.60;;;10.50;;
76640;SDS011;65538;50.798;6.064;2024-01-06T05:24:13;25.33;;;9.70;;
76640;SDS011;65538;50.798;6.064;2024-01-06T05:26:38;33.17;;;11.60;;
76640;SDS011;65538;50.798;6.064;2024-01-06T05:29:04;28.03;;;11.13;;
76640;SDS011;65538;50.798;6.064;2024-01-06T05:31:29;33.13;;;11.03;;
76640;SDS011;65538;50.798;6.064;2024-01-06T05:33:54;31.53;;;11.33;;
76640;SDS011;65538;50.798;6.064;2024-01-06T05:36:19;32.23;;;12.03;;
76640;SDS011;65538;50.798;6.064;2024-01-06T05:38:48;30.65;;;11.07;;
76640;SDS011;65538;50.798;6.064;2024-01-06T05:41:13;27.80;;;10.70;;
76640;SDS011;65538;50.798;6.064;2024-01-06T05:43:38;27.20;;;10.80;;
76640;SDS011;65538;50.798;6.064;2024-01-06T05:46:04;30.02;;;10.05;;
76640;SDS011;65538;50.798;6.064;2024-01-06T05:48:29;27.23;;;9.70;;
76640;SDS011;65538;50.798;6.064;2024-01-06T05:50:54;31.03;;;10.70;;
76640;SDS011;65538;50.798;6.064;2024-01-06T05:53:19;31.63;;;11.37;;
76640;SDS011;65538;50.798;6.064;2024-01-06T05:55:44;29.77;;;13.10;;
76640;SDS011;65538;50.798;6.064;2024-01-06T05:58:09;32.70;;;11.17;;
76640;SDS011;65538;50.798;6.064;2024-01-06T06:00:35;23.17;;;8.53;;
76640;SDS011;65538;50.798;6.064;2024-01-06T06:03:00;27.37;;;10.93;;
76640;SDS011;65538;50.798;6.064;2024-01-06T06:05:25;26.53;;;9.90;;
76640;SDS011;65538;50.798;6.064;2024-01-06T06:07:51;28.75;;;10.93;;
76640;SDS011;65538;50.798;6.064;2024-01-06T06:10:16;27.00;;;10.27;;
76640;SDS011;65538;50.798;6.064;2024-01-06T06:12:43;29.52;;;10.73;;
76640;SDS011;65538;50.798;6.064;2024-01-06T06:15:08;24.17;;;9.87;;
76640;SDS011;65538;50.798;6.064;2024-01-06T06:17:34;24.03;;;10.07;;
76640;SDS011;65538;50.798;6.064;2024-01-06T06:19:59;27.60;;;10.53;;
76640;SDS011;65538;50.798;6.064;2024-01-06T06:22:24;26.03;;;10.37;;
76640;SDS011;65538;50.798;6.064;2024-01-06T06:24:51;37.20;;;13.70;;
76640;SDS011;65538;50.798;6.064;2024-01-06T06:27:17;36.15;;;12.85;;
76640;SDS011;65538;50.798;6.064;2024-01-06T06:29:42;42.83;;;12.83;;
76640;SDS011;65538;50.798;6.064;2024-01-06T06:32:07;46.57;;;15.07;;
76640;SDS011;65538;50.798;6.064;2024-01-06T06:34:33;40.17;;;13.10;;
76640;SDS011;65538;50.798;6.064;2024-01-06T06:36:58;43.03;;;13.53;;
76640;SDS011;65538;50.798;6.064;2024-01-06T06:39:23;36.15;;;13.15;;
76640;SDS011;65538;50.798;6.064;2024-01-06T06:41:49;40.37;;;13.73;;
76640;SDS011;65538;50.798;6.064;2024-01-06T06:44:14;44.35;;;15.70;;
76640;SDS011;65538;50.798;6.064;2024-01-06T06:46:39;35.83;;;13.20;;
76640;SDS011;65538;50.798;6.064;2024-01-06T06:49:05;40.13;;;12.73;;
76640;SDS011;65538;50.798;6.064;2024-01-06T06:51:30;37.13;;;13.30;;
76640;SDS011;65538;50.798;6.064;2024-01-06T06:53:55;36.23;;;13.63;;
76640;SDS011;65538;50.798;6.064;2024-01-06T06:56:20;38.33;;;12.63;;
76640;SDS011;65538;50.798;6.064;2024-01-06T06:58:45;39.37;;;12.50;;
76640;SDS011;65538;50.798;6.064;2024-01-06T07:01:10;39.23;;;13.57;;
76640;SDS011;65538;50.798;6.064;2024-01-06T07:03:38;34.13;;;12.32;;
76640;SDS011;65538;50.798;6.064;2024-01-06T07:06:03;43.60;;;14.37;;
76640;SDS011;65538;50.798;6.064;2024-01-06T07:08:28;40.20;;;13.57;;
76640;SDS011;65538;50.798;6.064;2024-01-06T07:10:53;39.73;;;12.93;;
76640;SDS011;65538;50.798;6.064;2024-01-06T07:13:19;36.63;;;12.70;;
76640;SDS011;65538;50.798;6.064;2024-01-06T07:15:44;37.53;;;13.97;;
76640;SDS011;65538;50.798;6.064;2024-01-06T07:18:10;37.17;;;12.82;;
76640;SDS011;65538;50.798;6.064;2024-01-06T07:20:35;38.30;;;12.27;;
76640;SDS011;65538;50.798;6.064;2024-01-06T07:23:00;36.00;;;12.00;;
76640;SDS011;65538;50.798;6.064;2024-01-06T07:25:27;33.65;;;11.40;;
76640;SDS011;65538;50.798;6.064;2024-01-06T07:27:53;32.93;;;11.17;;
76640;SDS011;65538;50.798;6.064;2024-01-06T07:30:18;30.20;;;11.80;;
76640;SDS011;65538;50.798;6.064;2024-01-06T07:32:43;32.57;;;11.23;;
76640;SDS011;65538;50.798;6.064;2024-01-06T07:35:08;35.50;;;11.17;;
76640;SDS011;65538;50.798;6.064;2024-01-06T07:37:33;28.23;;;11.13;;
76640;SDS011;65538;50.798;6.064;2024-01-06T07:39:59;29.93;;;11.07;;
76640;SDS011;65538;50.798;6.064;2024-01-06T07:42:24;32.63;;;11.73;;
76640;SDS011;65538;50.798;6.064;2024-01-06T07:44:49;35.20;;;13.33;;
76640;SDS011;65538;50.798;6.064;2024-01-06T07:47:14;32.77;;;11.37;;
76640;SDS011;65538;50.798;6.064;2024-01-06T07:49:40;36.23;;;12.00;;
76640;SDS011;65538;50.798;6.064;2024-01-06T07:52:05;35.63;;;11.15;;
76640;SDS011;65538;50.798;6.064;2024-01-06T07:54:30;33.60;;;12.10;;
76640;SDS011;65538;50.798;6.064;2024-01-06T07:56:55;36.37;;;11.63;;
76640;SDS011;65538;50.798;6.064;2024-01-06T07:59:20;36.80;;;13.37;;
76640;SDS011;65538;50.798;6.064;2024-01-06T08:01:46;35.17;;;12.00;;
76640;SDS011;65538;50.798;6.064;2024-01-06T08:04:11;34.63;;;13.53;;
76640;SDS011;65538;50.798;6.064;2024-01-06T08:06:36;34.60;;;11.90;;
76640;SDS011;65538;50.798;6.064;2024-01-06T08:09:01;35.97;;;13.38;;
76640;SDS011;65538;50.798;6.064;2024-01-06T08:11:28;35.95;;;13.15;;
76640;SDS011;65538;50.798;6.064;2024-01-06T08:13:53;34.20;;;12.10;;
76640;SDS011;65538;50.798;6.064;2024-01-06T08:16:18;29.50;;;11.40;;
76640;SDS011;65538;50.798;6.064;2024-01-06T08:18:44;33.15;;;10.60;;
76640;SDS011;65538;50.798;6.064;2024-01-06T08:21:09;28.75;;;9.45;;
76640;SDS011;65538;50.798;6.064;2024-01-06T08:23:35;28.77;;;9.97;;
76640;SDS011;65538;50.798;6.064;2024-01-06T08:26:00;22.77;;;9.23;;
76640;SDS011;65538;50.798;6.064;2024-01-06T08:28:26;26.13;;;10.10;;
76640;SDS011;65538;50.798;6.064;2024-01-06T08:30:51;25.47;;;9.13;;
76640;SDS011;65538;50.798;6.064;2024-01-06T08:33:16;25.30;;;9.10;;
76640;SDS011;65538;50.798;6.064;2024-01-06T08:35:42;25.88;;;9.45;;
76640;SDS011;65538;50.798;6.064;2024-01-06T08:38:07;29.30;;;10.43;;
76640;SDS011;65538;50.798;6.064;2024-01-06T08:40:33;26.43;;;10.40;;
76640;SDS011;65538;50.798;6.064;2024-01-06T08:42:58;29.42;;;10.50;;
76640;SDS011;65538;50.798;6.064;2024-01-06T08:45:24;30.70;;;10.60;;
76640;SDS011;65538;50.798;6.064;2024-01-06T08:47:49;28.63;;;10.47;;
76640;SDS011;65538;50.798;6.064;2024-01-06T08:50:14;27.80;;;10.83;;
76640;SDS011;65538;50.798;6.064;2024-01-06T08:52:39;26.33;;;11.00;;
76640;SDS011;65538;50.798;6.064;2024-01-06T08:55:05;20.00;;;8.63;;
76640;SDS011;65538;50.798;6.064;2024-01-06T08:57:30;19.13;;;8.40;;
76640;SDS011;65538;50.798;6.064;2024-01-06T08:59:55;21.53;;;9.23;;
76640;SDS011;65538;50.798;6.064;2024-01-06T09:02:20;19.30;;;8.63;;
76640;SDS011;65538;50.798;6.064;2024-01-06T09:04:46;22.92;;;10.18;;
76640;SDS011;65538;50.798;6.064;2024-01-06T09:07:11;20.53;;;8.97;;
76640;SDS011;65538;50.798;6.064;2024-01-06T09:09:36;19.37;;;7.50;;
76640;SDS011;65538;50.798;6.064;2024-01-06T09:12:02;23.83;;;9.37;;
76640;SDS011;65538;50.798;6.064;2024-01-06T09:14:27;29.92;;;11.15;;
76640;SDS011;65538;50.798;6.064;2024-01-06T09:16:52;25.13;;;8.97;;
76640;SDS011;65538;50.798;6.064;2024-01-06T09:19:18;26.63;;;11.23;;
76640;SDS011;65538;50.798;6.064;2024-01-06T09:21:43;25.77;;;10.57;;
76640;SDS011;65538;50.798;6.064;2024-01-06T09:24:08;26.13;;;9.27;;
76640;SDS011;65538;50.798;6.064;2024-01-06T09:26:33;23.50;;;11.30;;
76640;SDS011;65538;50.798;6.064;2024-01-06T09:28:59;20.47;;;9.00;;
76640;SDS011;65538;50.798;6.064;2024-01-06T09:31:31;22.17;;;9.45;;
76640;SDS011;65538;50.798;6.064;2024-01-06T09:33:59;21.52;;;8.85;;
76640;SDS011;65538;50.798;6.064;2024-01-06T09:36:25;21.63;;;9.07;;
76640;SDS011;65538;50.798;6.064;2024-01-06T09:38:50;20.87;;;9.07;;
76640;SDS011;65538;50.798;6.064;2024-01-06T09:41:16;20.10;;;8.10;;
76640;SDS011;65538;50.798;6.064;2024-01-06T09:43:41;19.05;;;8.38;;
76640;SDS011;65538;50.798;6.064;2024-01-06T09:46:26;20.27;;;8.83;;
76640;SDS011;65538;50.798;6.064;2024-01-06T09:48:51;19.77;;;8.77;;
76640;SDS011;65538;50.798;6.064;2024-01-06T09:51:17;19.10;;;8.65;;
76640;SDS011;65538;50.798;6.064;2024-01-06T09:53:56;22.92;;;8.27;;
76640;SDS011;65538;50.798;6.064;2024-01-06T09:56:21;21.23;;;7.95;;
76640;SDS011;65538;50.798;6.064;2024-01-06T09:58:48;20.77;;;8.63;;
76640;SDS011;65538;50.798;6.064;2024-01-06T10:01:14;19.03;;;8.03;;
76640;SDS011;65538;50.798;6.064;2024-01-06T10:03:39;18.17;;;7.13;;
76640;SDS011;65538;50.798;6.064;2024-01-06T10:06:05;19.60;;;7.32;;
76640;SDS011;65538;50.798;6.064;2024-01-06T10:08:31;16.42;;;7.32;;
76640;SDS011;65538;50.798;6.064;2024-01-06T10:10:58;18.60;;;7.15;;
76640;SDS011;65538;50.798;6.064;2024-01-06T10:13:23;16.55;;;6.85;;
76640;SDS011;65538;50.798;6.064;2024-01-06T10:15:49;22.08;;;8.95;;
76640;SDS011;65538;50.798;6.064;2024-01-06T10:18:15;31.33;;;11.27;;
76640;SDS011;65538;50.798;6.064;2024-01-06T10:20:40;15.95;;;7.97;;
76640;SDS011;65538;50.798;6.064;2024-01-06T10:23:06;19.80;;;7.77;;
76640;SDS011;65538;50.798;6.064;2024-01-06T10:25:31;19.80;;;8.17;;
76640;SDS011;65538;50.798;6.064;2024-01-06T10:27:56;19.23;;;7.78;;
76640;SDS011;65538;50.798;6.064;2024-01-06T10:30:21;18.63;;;7.53;;
76640;SDS011;65538;50.798;6.064;2024-01-06T10:32:47;18.23;;;7.67;;
76640;SDS011;65538;50.798;6.064;2024-01-06T10:35:12;18.97;;;7.80;;
76640;SDS011;65538;50.798;6.064;2024-01-06T10:37:37;20.43;;;9.20;;
76640;SDS011;65538;50.798;6.064;2024-01-06T10:42:31;18.80;;;7.85;;
76640;SDS011;65538;50.798;6.064;2024-01-06T10:44:56;20.67;;;9.03;;
76640;SDS011;65538;50.798;6.064;2024-01-06T10:47:21;19.67;;;8.50;;
76640;SDS011;65538;50.798;6.064;2024-01-06T10:49:46;17.50;;;8.13;;
76640;SDS011;65538;50.798;6.064;2024-01-06T10:52:12;20.30;;;7.63;;
76640;SDS011;65538;50.798;6.064;2024-01-06T10:54:38;16.98;;;7.45;;
76640;SDS011;65538;50.798;6.064;2024-01-06T10:57:04;17.92;;;7.75;;
76640;SDS011;65538;50.798;6.064;2024-01-06T10:59:31;15.07;;;6.78;;
76640;SDS011;65538;50.798;6.064;2024-01-06T11:01:57;15.25;;;6.75;;
76640;SDS011;65538;50.798;6.064;2024-01-06T11:04:23;15.38;;;7.15;;
76640;SDS011;65538;50.798;6.064;2024-01-06T11:06:49;18.37;;;8.53;;
76640;SDS011;65538;50.798;6.064;2024-01-06T11:09:24;18.52;;;7.55;;
76640;SDS011;65538;50.798;6.064;2024-01-06T11:11:52;21.15;;;7.28;;
76640;SDS011;65538;50.798;6.064;2024-01-06T11:14:25;17.50;;;7.18;;
76640;SDS011;65538;50.798;6.064;2024-01-06T11:16:51;18.33;;;7.32;;
76640;SDS011;65538;50.798;6.064;2024-01-06T11:25:05;15.52;;;6.90;;
76640;SDS011;65538;50.798;6.064;2024-01-06T11:27:32;17.85;;;7.45;;
76640;SDS011;65538;50.798;6.064;2024-01-06T11:29:57;15.77;;;6.27;;
76640;SDS011;65538;50.798;6.064;2024-01-06T11:32:30;16.13;;;6.90;;
76640;SDS011;65538;50.798;6.064;2024-01-06T11:34:55;18.27;;;7.40;;
76640;SDS011;65538;50.798;6.064;2024-01-06T11:37:24;16.17;;;6.57;;
76640;SDS011;65538;50.798;6.064;2024-01-06T11:39:49;14.95;;;6.78;;
76640;SDS011;65538;50.798;6.064;2024-01-06T11:42:15;18.10;;;7.75;;
76640;SDS011;65538;50.798;6.064;2024-01-06T11:44:41;15.13;;;7.07;;
76640;SDS011;65538;50.798;6.064;2024-01-06T11:47:08;14.27;;;6.18;;
76640;SDS011;65538;50.798;6.064;2024-01-06T11:49:36;16.55;;;6.97;;
76640;SDS011;65538;50.798;6.064;2024-01-06T11:52:02;15.20;;;6.45;;
76640;SDS011;65538;50.798;6.064;2024-01-06T11:54:27;15.50;;;6.38;;
76640;SDS011;65538;50.798;6.064;2024-01-06T11:56:52;17.23;;;5.83;;
76640;SDS011;65538;50.798;6.064;2024-01-06T11:59:19;16.63;;;6.95;;
76640;SDS011;65538;50.798;6.064;2024-01-06T12:01:44;16.65;;;6.13;;
76640;SDS011;65538;50.798;6.064;2024-01-06T12:04:10;17.45;;;6.85;;
76640;SDS011;65538;50.798;6.064;2024-01-06T12:06:38;25.45;;;7.18;;
76640;SDS011;65538;50.798;6.064;2024-01-06T12:09:07;14.68;;;6.80;;
76640;SDS011;65538;50.798;6.064;2024-01-06T12:11:32;14.85;;;6.80;;
76640;SDS011;65538;50.798;6.064;2024-01-06T12:13:57;14.67;;;6.10;;
76640;SDS011;65538;50.798;6.064;2024-01-06T12:16:23;14.35;;;7.05;;
76640;SDS011;65538;50.798;6.064;2024-01-06T12:18:55;16.40;;;6.70;;
76640;SDS011;65538;50.798;6.064;2024-01-06T12:23:46;13.80;;;6.27;;
76640;SDS011;65538;50.798;6.064;2024-01-06T12:26:12;15.40;;;6.82;;
76640;SDS011;65538;50.798;6.064;2024-01-06T12:28:37;15.20;;;6.30;;
76640;SDS011;65538;50.798;6.064;2024-01-06T12:31:04;15.43;;;5.57;;
76640;SDS011;65538;50.798;6.064;2024-01-06T12:33:29;14.55;;;5.60;;
76640;SDS011;65538;50.798;6.064;2024-01-06T12:35:55;12.75;;;6.05;;
76640;SDS011;65538;50.798;6.064;2024-01-06T12:38:20;12.83;;;6.27;;
76640;SDS011;65538;50.798;6.064;2024-01-06T12:40:45;14.53;;;6.00;;
76640;SDS011;65538;50.798;6.064;2024-01-06T12:43:11;19.52;;;7.32;;
76640;SDS011;65538;50.798;6.064;2024-01-06T12:45:36;17.30;;;7.93;;
76640;SDS011;65538;50.798;6.064;2024-01-06T12:48:01;14.17;;;6.87;;
76640;SDS011;65538;50.798;6.064;2024-01-06T12:50:27;16.20;;;7.13;;
76640;SDS011;65538;50.798;6.064;2024-01-06T12:52:52;14.80;;;5.30;;
76640;SDS011;65538;50.798;6.064;2024-01-06T12:55:17;14.37;;;5.90;;
76640;SDS011;65538;50.798;6.064;2024-01-06T12:57:42;14.10;;;5.80;;
76640;SDS011;65538;50.798;6.064;2024-01-06T13:00:08;17.85;;;6.68;;
76640;SDS011;65538;50.798;6.064;2024-01-06T13:02:35;16.35;;;6.90;;
76640;SDS011;65538;50.798;6.064;2024-01-06T13:05:01;16.40;;;5.83;;
76640;SDS011;65538;50.798;6.064;2024-01-06T13:07:26;17.40;;;7.00;;
76640;SDS011;65538;50.798;6.064;2024-01-06T13:09:51;19.37;;;7.23;;
76640;SDS011;65538;50.798;6.064;2024-01-06T13:12:16;21.00;;;7.40;;
76640;SDS011;65538;50.798;6.064;2024-01-06T13:14:43;20.80;;;7.55;;
76640;SDS011;65538;50.798;6.064;2024-01-06T13:17:09;20.38;;;8.13;;
76640;SDS011;65538;50.798;6.064;2024-01-06T13:19:34;19.07;;;7.47;;
76640;SDS011;65538;50.798;6.064;2024-01-06T13:21:59;20.40;;;7.87;;
76640;SDS011;65538;50.798;6.064;2024-01-06T13:24:24;20.03;;;7.63;;
76640;SDS011;65538;50.798;6.064;2024-01-06T13:26:50;24.15;;;8.88;;
76640;SDS011;65538;50.798;6.064;2024-01-06T13:29:15;20.93;;;7.40;;
76640;SDS011;65538;50.798;6.064;2024-01-06T13:31:40;25.03;;;9.43;;
76640;SDS011;65538;50.798;6.064;2024-01-06T13:34:06;21.07;;;8.57;;
76640;SDS011;65538;50.798;6.064;2024-01-06T13:36:31;22.73;;;8.18;;
76640;SDS011;65538;50.798;6.064;2024-01-06T13:38:56;22.17;;;8.80;;
76640;SDS011;65538;50.798;6.064;2024-01-06T13:41:21;19.73;;;8.40;;
76640;SDS011;65538;50.798;6.064;2024-01-06T13:43:46;21.37;;;8.17;;
76640;SDS011;65538;50.798;6.064;2024-01-06T13:46:12;21.27;;;7.27;;
76640;SDS011;65538;50.798;6.064;2024-01-06T13:48:39;20.98;;;6.78;;
76640;SDS011;65538;50.798;6.064;2024-01-06T13:51:04;21.47;;;8.37;;
76640;SDS011;65538;50.798;6.064;2024-01-06T13:53:29;17.57;;;7.47;;
76640;SDS011;65538;50.798;6.064;2024-01-06T13:55:54;19.27;;;7.22;;
76640;SDS011;65538;50.798;6.064;2024-01-06T13:58:20;17.47;;;7.10;;
76640;SDS011;65538;50.798;6.064;2024-01-06T14:00:45;18.87;;;7.57;;
76640;SDS011;65538;50.798;6.064;2024-01-06T14:03:10;23.00;;;7.73;;
76640;SDS011;65538;50.798;6.064;2024-01-06T14:05:35;24.20;;;8.50;;
76640;SDS011;65538;50.798;6.064;2024-01-06T14:08:01;26.13;;;11.03;;
76640;SDS011;65538;50.798;6.064;2024-01-06T14:10:26;28.87;;;9.83;;
76640;SDS011;65538;50.798;6.064;2024-01-06T14:12:52;32.37;;;11.87;;
76640;SDS011;65538;50.798;6.064;2024-01-06T14:15:17;28.98;;;11.73;;
76640;SDS011;65538;50.798;6.064;2024-01-06T14:17:43;25.58;;;10.63;;
76640;SDS011;65538;50.798;6.064;2024-01-06T14:20:14;29.80;;;10.70;;
76640;SDS011;65538;50.798;6.064;2024-01-06T14:22:42;27.63;;;9.95;;
76640;SDS011;65538;50.798;6.064;2024-01-06T14:25:07;28.40;;;11.60;;
76640;SDS011;65538;50.798;6.064;2024-01-06T14:27:32;26.27;;;11.13;;
76640;SDS011;65538;50.798;6.064;2024-01-06T14:29:58;26.60;;;10.02;;